sensor_id;sensor_type;location;lat;lon;timestamp;P1;durP1;ratioP1;P2;durP2;ratioP2
76136;SDS011;68622;53.128;17.966;2023-04-24T00:00:56;14.70;;;8.90;;
76136;SDS011;68622;53.128;17.966;2023-04-24T00:03:25;15.10;;;8.60;;
76136;SDS011;68622;53.128;17.966;2023-04-24T00:05:51;13.60;;;8.10;;
76136;SDS011;68622;53.128;17.966;2023-04-24T00:08:17;14.70;;;8.50;;
76136;SDS011;68622;53.128;17.966;2023-04-24T00:10:44;13.50;;;8.20;;
76136;SDS011;68622;53.128;17.966;2023-04-24T00:13:10;14.20;;;8.70;;
76136;SDS011;68622;53.128;17.966;2023-04-24T00:15:36;15.10;;;8.70;;
76136;SDS011;68622;53.128;17.966;2023-04-24T00:18:02;15.90;;;8.80;;
76136;SDS011;68622;53.128;17.966;2023-04-24T00:20:28;14.30;;;8.90;;
76136;SDS011;68622;53.128;17.966;2023-04-24T00:22:55;15.30;;;9.40;;
76136;SDS011;68622;53.128;17.966;2023-04-24T00:25:21;16.00;;;9.20;;
76136;SDS011;68622;53.128;17.966;2023-04-24T00:27:47;15.80;;;9.60;;
76136;SDS011;68622;53.128;17.966;2023-04-24T00:30:13;15.40;;;10.40;;
76136;SDS011;68622;53.128;17.966;2023-04-24T00:32:39;15.00;;;10.10;;
76136;SDS011;68622;53.128;17.966;2023-04-24T00:35:05;17.00;;;10.10;;
76136;SDS011;68622;53.128;17.966;2023-04-24T00:37:32;16.70;;;9.30;;
76136;SDS011;68622;53.128;17.966;2023-04-24T00:39:58;14.00;;;8.30;;
76136;SDS011;68622;53.128;17.966;2023-04-24T00:42:24;18.50;;;10.20;;
76136;SDS011;68622;53.128;17.966;2023-04-24T00:44:50;14.70;;;8.70;;
76136;SDS011;68622;53.128;17.966;2023-04-24T00:47:17;16.40;;;9.50;;
76136;SDS011;68622;53.128;17.966;2023-04-24T00:49:44;14.30;;;9.00;;
76136;SDS011;68622;53.128;17.966;2023-04-24T00:52:10;17.50;;;9.70;;
76136;SDS011;68622;53.128;17.966;2023-04-24T00:54:38;15.70;;;9.70;;
76136;SDS011;68622;53.128;17.966;2023-04-24T00:57:03;20.40;;;10.00;;
76136;SDS011;68622;53.128;17.966;2023-04-24T00:59:29;14.90;;;9.00;;
76136;SDS011;68622;53.128;17.966;2023-04-24T01:01:56;19.40;;;9.50;;
76136;SDS011;68622;53.128;17.966;2023-04-24T01:04:23;13.70;;;9.40;;
76136;SDS011;68622;53.128;17.966;2023-04-24T01:06:50;17.20;;;10.10;;
76136;SDS011;68622;53.128;17.966;2023-04-24T01:09:16;16.30;;;11.00;;
76136;SDS011;68622;53.128;17.966;2023-04-24T01:11:44;16.80;;;10.20;;
76136;SDS011;68622;53.128;17.966;2023-04-24T01:14:11;18.20;;;10.00;;
76136;SDS011;68622;53.128;17.966;2023-04-24T01:16:37;17.80;;;9.80;;
76136;SDS011;68622;53.128;17.966;2023-04-24T01:19:04;17.90;;;11.00;;
76136;SDS011;68622;53.128;17.966;2023-04-24T01:21:33;17.00;;;10.50;;
76136;SDS011;68622;53.128;17.966;2023-04-24T01:24:03;19.20;;;10.60;;
76136;SDS011;68622;53.128;17.966;2023-04-24T01:26:30;17.30;;;10.80;;
76136;SDS011;68622;53.128;17.966;2023-04-24T01:28:56;18.00;;;10.70;;
76136;SDS011;68622;53.128;17.966;2023-04-24T01:31:23;17.00;;;11.50;;
76136;SDS011;68622;53.128;17.966;2023-04-24T01:33:50;17.10;;;10.50;;
76136;SDS011;68622;53.128;17.966;2023-04-24T01:36:16;17.10;;;11.60;;
76136;SDS011;68622;53.128;17.966;2023-04-24T01:38:43;18.80;;;11.50;;
76136;SDS011;68622;53.128;17.966;2023-04-24T01:41:10;17.70;;;12.00;;
76136;SDS011;68622;53.128;17.966;2023-04-24T01:43:36;16.00;;;10.50;;
76136;SDS011;68622;53.128;17.966;2023-04-24T01:46:02;19.60;;;10.70;;
76136;SDS011;68622;53.128;17.966;2023-04-24T01:48:28;17.70;;;11.10;;
76136;SDS011;68622;53.128;17.966;2023-04-24T01:50:54;15.30;;;11.10;;
76136;SDS011;68622;53.128;17.966;2023-04-24T01:53:22;19.20;;;10.90;;
76136;SDS011;68622;53.128;17.966;2023-04-24T01:55:47;18.10;;;11.30;;
76136;SDS011;68622;53.128;17.966;2023-04-24T01:58:13;18.80;;;11.40;;
76136;SDS011;68622;53.128;17.966;2023-04-24T02:00:40;17.10;;;9.60;;
76136;SDS011;68622;53.128;17.966;2023-04-24T02:03:06;19.30;;;11.10;;
76136;SDS011;68622;53.128;17.966;2023-04-24T02:05:32;17.30;;;11.20;;
76136;SDS011;68622;53.128;17.966;2023-04-24T02:07:58;17.80;;;10.50;;
76136;SDS011;68622;53.128;17.966;2023-04-24T02:10:24;18.80;;;10.70;;
76136;SDS011;68622;53.128;17.966;2023-04-24T02:12:50;17.30;;;10.50;;
76136;SDS011;68622;53.128;17.966;2023-04-24T02:15:16;21.00;;;12.10;;
76136;SDS011;68622;53.128;17.966;2023-04-24T02:17:43;20.80;;;11.30;;
76136;SDS011;68622;53.128;17.966;2023-04-24T02:20:09;20.40;;;11.50;;
76136;SDS011;68622;53.128;17.966;2023-04-24T02:22:37;18.10;;;11.10;;
76136;SDS011;68622;53.128;17.966;2023-04-24T02:25:03;17.50;;;11.50;;
76136;SDS011;68622;53.128;17.966;2023-04-24T02:27:30;22.80;;;12.30;;
76136;SDS011;68622;53.128;17.966;2023-04-24T02:29:56;21.20;;;13.00;;
76136;SDS011;68622;53.128;17.966;2023-04-24T02:32:22;21.30;;;12.90;;
76136;SDS011;68622;53.128;17.966;2023-04-24T02:34:48;21.30;;;12.60;;
76136;SDS011;68622;53.128;17.966;2023-04-24T02:37:14;20.00;;;11.90;;
76136;SDS011;68622;53.128;17.966;2023-04-24T02:39:40;21.70;;;12.50;;
76136;SDS011;68622;53.128;17.966;2023-04-24T02:42:06;19.40;;;12.00;;
76136;SDS011;68622;53.128;17.966;2023-04-24T02:44:34;20.00;;;12.00;;
76136;SDS011;68622;53.128;17.966;2023-04-24T02:47:00;19.20;;;11.90;;
76136;SDS011;68622;53.128;17.966;2023-04-24T02:49:26;21.60;;;12.70;;
76136;SDS011;68622;53.128;17.966;2023-04-24T02:51:53;22.70;;;12.00;;
76136;SDS011;68622;53.128;17.966;2023-04-24T02:54:19;19.80;;;12.80;;
76136;SDS011;68622;53.128;17.966;2023-04-24T02:56:45;22.40;;;13.20;;
76136;SDS011;68622;53.128;17.966;2023-04-24T02:59:11;22.70;;;13.30;;
76136;SDS011;68622;53.128;17.966;2023-04-24T03:01:37;25.30;;;14.20;;
76136;SDS011;68622;53.128;17.966;2023-04-24T03:04:03;23.60;;;14.80;;
76136;SDS011;68622;53.128;17.966;2023-04-24T03:06:29;34.00;;;17.70;;
76136;SDS011;68622;53.128;17.966;2023-04-24T03:08:57;33.20;;;18.20;;
76136;SDS011;68622;53.128;17.966;2023-04-24T03:11:22;29.10;;;16.70;;
76136;SDS011;68622;53.128;17.966;2023-04-24T03:13:48;28.60;;;15.60;;
76136;SDS011;68622;53.128;17.966;2023-04-24T03:16:14;25.90;;;14.60;;
76136;SDS011;68622;53.128;17.966;2023-04-24T03:18:40;23.10;;;13.40;;
76136;SDS011;68622;53.128;17.966;2023-04-24T03:21:07;21.10;;;13.30;;
76136;SDS011;68622;53.128;17.966;2023-04-24T03:23:33;20.20;;;12.40;;
76136;SDS011;68622;53.128;17.966;2023-04-24T03:25:59;23.50;;;13.80;;
76136;SDS011;68622;53.128;17.966;2023-04-24T03:28:25;24.00;;;12.40;;
76136;SDS011;68622;53.128;17.966;2023-04-24T03:30:56;18.80;;;11.40;;
76136;SDS011;68622;53.128;17.966;2023-04-24T03:33:23;21.40;;;11.40;;
76136;SDS011;68622;53.128;17.966;2023-04-24T03:35:59;20.80;;;11.90;;
76136;SDS011;68622;53.128;17.966;2023-04-24T03:38:26;21.00;;;11.80;;
76136;SDS011;68622;53.128;17.966;2023-04-24T03:41:01;18.10;;;12.50;;
76136;SDS011;68622;53.128;17.966;2023-04-24T03:43:37;20.20;;;12.40;;
76136;SDS011;68622;53.128;17.966;2023-04-24T03:46:04;20.40;;;11.60;;
76136;SDS011;68622;53.128;17.966;2023-04-24T03:48:32;19.80;;;12.90;;
76136;SDS011;68622;53.128;17.966;2023-04-24T03:50:59;23.40;;;13.10;;
76136;SDS011;68622;53.128;17.966;2023-04-24T03:53:24;24.00;;;12.60;;
76136;SDS011;68622;53.128;17.966;2023-04-24T03:55:52;19.30;;;11.70;;
76136;SDS011;68622;53.128;17.966;2023-04-24T03:58:19;24.70;;;13.70;;
76136;SDS011;68622;53.128;17.966;2023-04-24T04:00:45;21.40;;;13.80;;
76136;SDS011;68622;53.128;17.966;2023-04-24T04:03:32;20.60;;;13.30;;
76136;SDS011;68622;53.128;17.966;2023-04-24T04:05:58;24.80;;;13.50;;
76136;SDS011;68622;53.128;17.966;2023-04-24T04:08:23;23.50;;;15.00;;
76136;SDS011;68622;53.128;17.966;2023-04-24T04:10:49;21.20;;;13.90;;
76136;SDS011;68622;53.128;17.966;2023-04-24T04:13:15;22.60;;;14.70;;
76136;SDS011;68622;53.128;17.966;2023-04-24T04:15:41;24.90;;;13.80;;
76136;SDS011;68622;53.128;17.966;2023-04-24T04:18:07;23.30;;;14.00;;
76136;SDS011;68622;53.128;17.966;2023-04-24T04:20:34;23.70;;;13.70;;
76136;SDS011;68622;53.128;17.966;2023-04-24T04:23:00;19.20;;;12.30;;
76136;SDS011;68622;53.128;17.966;2023-04-24T04:25:35;22.40;;;13.80;;
76136;SDS011;68622;53.128;17.966;2023-04-24T04:28:01;25.40;;;18.90;;
76136;SDS011;68622;53.128;17.966;2023-04-24T04:30:28;23.90;;;15.30;;
76136;SDS011;68622;53.128;17.966;2023-04-24T04:32:58;25.30;;;14.80;;
76136;SDS011;68622;53.128;17.966;2023-04-24T04:35:25;22.30;;;13.30;;
76136;SDS011;68622;53.128;17.966;2023-04-24T04:37:51;22.30;;;14.80;;
76136;SDS011;68622;53.128;17.966;2023-04-24T04:40:33;23.20;;;13.70;;
76136;SDS011;68622;53.128;17.966;2023-04-24T04:43:02;19.60;;;13.00;;
76136;SDS011;68622;53.128;17.966;2023-04-24T04:45:32;19.80;;;13.20;;
76136;SDS011;68622;53.128;17.966;2023-04-24T04:48:19;20.50;;;12.90;;
76136;SDS011;68622;53.128;17.966;2023-04-24T04:50:45;19.80;;;11.80;;
76136;SDS011;68622;53.128;17.966;2023-04-24T04:53:11;20.90;;;13.00;;
76136;SDS011;68622;53.128;17.966;2023-04-24T04:55:38;23.10;;;13.10;;
76136;SDS011;68622;53.128;17.966;2023-04-24T04:58:13;20.00;;;12.30;;
76136;SDS011;68622;53.128;17.966;2023-04-24T05:00:39;23.90;;;14.10;;
76136;SDS011;68622;53.128;17.966;2023-04-24T05:03:15;22.10;;;13.00;;
76136;SDS011;68622;53.128;17.966;2023-04-24T05:05:41;21.30;;;14.00;;
76136;SDS011;68622;53.128;17.966;2023-04-24T05:08:09;22.20;;;14.30;;
76136;SDS011;68622;53.128;17.966;2023-04-24T05:10:35;24.00;;;14.40;;
76136;SDS011;68622;53.128;17.966;2023-04-24T05:13:03;23.40;;;14.30;;
76136;SDS011;68622;53.128;17.966;2023-04-24T05:15:30;23.10;;;13.50;;
76136;SDS011;68622;53.128;17.966;2023-04-24T05:17:57;23.60;;;13.50;;
76136;SDS011;68622;53.128;17.966;2023-04-24T05:20:23;22.60;;;11.80;;
76136;SDS011;68622;53.128;17.966;2023-04-24T05:22:49;21.80;;;13.10;;
76136;SDS011;68622;53.128;17.966;2023-04-24T05:25:17;19.60;;;12.80;;
76136;SDS011;68622;53.128;17.966;2023-04-24T05:27:49;19.70;;;11.80;;
76136;SDS011;68622;53.128;17.966;2023-04-24T05:30:16;20.70;;;11.80;;
76136;SDS011;68622;53.128;17.966;2023-04-24T05:32:42;18.20;;;12.10;;
76136;SDS011;68622;53.128;17.966;2023-04-24T05:35:08;19.00;;;13.20;;
76136;SDS011;68622;53.128;17.966;2023-04-24T05:37:35;22.60;;;13.80;;
76136;SDS011;68622;53.128;17.966;2023-04-24T05:40:01;20.70;;;13.40;;
76136;SDS011;68622;53.128;17.966;2023-04-24T05:42:27;20.20;;;13.10;;
76136;SDS011;68622;53.128;17.966;2023-04-24T05:44:53;20.90;;;13.30;;
76136;SDS011;68622;53.128;17.966;2023-04-24T05:47:20;21.50;;;13.80;;
76136;SDS011;68622;53.128;17.966;2023-04-24T05:49:48;21.10;;;13.50;;
76136;SDS011;68622;53.128;17.966;2023-04-24T05:52:14;24.90;;;15.10;;
76136;SDS011;68622;53.128;17.966;2023-04-24T05:54:43;20.70;;;13.20;;
76136;SDS011;68622;53.128;17.966;2023-04-24T05:57:10;20.30;;;13.30;;
76136;SDS011;68622;53.128;17.966;2023-04-24T06:00:09;24.00;;;13.90;;
76136;SDS011;68622;53.128;17.966;2023-04-24T06:02:43;19.20;;;11.80;;
76136;SDS011;68622;53.128;17.966;2023-04-24T06:05:10;19.30;;;12.00;;
76136;SDS011;68622;53.128;17.966;2023-04-24T06:07:36;20.00;;;12.10;;
76136;SDS011;68622;53.128;17.966;2023-04-24T06:10:03;15.90;;;11.00;;
76136;SDS011;68622;53.128;17.966;2023-04-24T06:12:35;19.40;;;12.20;;
76136;SDS011;68622;53.128;17.966;2023-04-24T06:15:06;21.40;;;11.60;;
76136;SDS011;68622;53.128;17.966;2023-04-24T06:17:51;20.50;;;12.60;;
76136;SDS011;68622;53.128;17.966;2023-04-24T06:20:17;20.20;;;11.90;;
76136;SDS011;68622;53.128;17.966;2023-04-24T06:22:43;22.60;;;13.30;;
76136;SDS011;68622;53.128;17.966;2023-04-24T06:25:09;20.60;;;13.30;;
76136;SDS011;68622;53.128;17.966;2023-04-24T06:27:36;24.30;;;13.80;;
76136;SDS011;68622;53.128;17.966;2023-04-24T06:30:02;20.00;;;11.30;;
76136;SDS011;68622;53.128;17.966;2023-04-24T06:32:28;30.00;;;12.30;;
76136;SDS011;68622;53.128;17.966;2023-04-24T06:34:56;17.20;;;10.90;;
76136;SDS011;68622;53.128;17.966;2023-04-24T06:37:22;21.30;;;10.10;;
76136;SDS011;68622;53.128;17.966;2023-04-24T06:39:48;21.70;;;11.00;;
76136;SDS011;68622;53.128;17.966;2023-04-24T06:42:14;21.30;;;12.00;;
76136;SDS011;68622;53.128;17.966;2023-04-24T06:44:42;28.20;;;19.10;;
76136;SDS011;68622;53.128;17.966;2023-04-24T06:47:11;21.50;;;12.40;;
76136;SDS011;68622;53.128;17.966;2023-04-24T06:49:39;19.00;;;12.00;;
76136;SDS011;68622;53.128;17.966;2023-04-24T06:52:05;21.80;;;11.60;;
76136;SDS011;68622;53.128;17.966;2023-04-24T06:54:32;19.50;;;11.00;;
76136;SDS011;68622;53.128;17.966;2023-04-24T06:56:58;15.70;;;9.30;;
76136;SDS011;68622;53.128;17.966;2023-04-24T06:59:26;21.20;;;10.40;;
76136;SDS011;68622;53.128;17.966;2023-04-24T07:01:53;26.10;;;13.20;;
76136;SDS011;68622;53.128;17.966;2023-04-24T07:04:20;22.10;;;11.10;;
76136;SDS011;68622;53.128;17.966;2023-04-24T07:06:46;15.40;;;9.20;;
76136;SDS011;68622;53.128;17.966;2023-04-24T07:09:15;16.70;;;9.50;;
76136;SDS011;68622;53.128;17.966;2023-04-24T07:11:44;19.10;;;9.90;;
76136;SDS011;68622;53.128;17.966;2023-04-24T07:14:11;15.30;;;9.30;;
76136;SDS011;68622;53.128;17.966;2023-04-24T07:16:37;16.10;;;8.80;;
76136;SDS011;68622;53.128;17.966;2023-04-24T07:19:03;19.30;;;9.70;;
76136;SDS011;68622;53.128;17.966;2023-04-24T07:21:29;20.80;;;11.40;;
76136;SDS011;68622;53.128;17.966;2023-04-24T07:23:57;18.80;;;9.90;;
76136;SDS011;68622;53.128;17.966;2023-04-24T07:26:24;23.90;;;9.80;;
76136;SDS011;68622;53.128;17.966;2023-04-24T07:28:51;17.80;;;9.10;;
76136;SDS011;68622;53.128;17.966;2023-04-24T07:31:17;14.70;;;7.30;;
76136;SDS011;68622;53.128;17.966;2023-04-24T07:33:43;10.90;;;6.40;;
76136;SDS011;68622;53.128;17.966;2023-04-24T07:36:09;16.40;;;7.80;;
76136;SDS011;68622;53.128;17.966;2023-04-24T07:38:41;14.60;;;8.10;;
76136;SDS011;68622;53.128;17.966;2023-04-24T07:41:08;30.70;;;9.00;;
76136;SDS011;68622;53.128;17.966;2023-04-24T07:43:34;16.10;;;7.50;;
76136;SDS011;68622;53.128;17.966;2023-04-24T07:46:00;17.00;;;7.50;;
76136;SDS011;68622;53.128;17.966;2023-04-24T07:48:27;16.40;;;8.50;;
76136;SDS011;68622;53.128;17.966;2023-04-24T07:50:53;21.40;;;10.50;;
76136;SDS011;68622;53.128;17.966;2023-04-24T07:53:19;19.10;;;9.30;;
76136;SDS011;68622;53.128;17.966;2023-04-24T07:55:45;17.40;;;8.60;;
76136;SDS011;68622;53.128;17.966;2023-04-24T07:58:11;14.30;;;7.80;;
76136;SDS011;68622;53.128;17.966;2023-04-24T08:00:37;14.40;;;7.90;;
76136;SDS011;68622;53.128;17.966;2023-04-24T08:03:03;16.80;;;7.30;;
76136;SDS011;68622;53.128;17.966;2023-04-24T08:05:29;15.00;;;7.00;;
76136;SDS011;68622;53.128;17.966;2023-04-24T08:07:55;15.30;;;6.80;;
76136;SDS011;68622;53.128;17.966;2023-04-24T08:10:21;13.40;;;6.80;;
76136;SDS011;68622;53.128;17.966;2023-04-24T08:12:48;10.90;;;6.40;;
76136;SDS011;68622;53.128;17.966;2023-04-24T08:15:14;14.20;;;7.00;;
76136;SDS011;68622;53.128;17.966;2023-04-24T08:17:40;12.60;;;7.00;;
76136;SDS011;68622;53.128;17.966;2023-04-24T08:20:08;12.00;;;7.40;;
76136;SDS011;68622;53.128;17.966;2023-04-24T08:22:39;13.40;;;6.90;;
76136;SDS011;68622;53.128;17.966;2023-04-24T08:25:06;13.20;;;7.10;;
76136;SDS011;68622;53.128;17.966;2023-04-24T08:27:33;10.90;;;5.90;;
76136;SDS011;68622;53.128;17.966;2023-04-24T08:30:00;13.30;;;6.60;;
76136;SDS011;68622;53.128;17.966;2023-04-24T08:32:26;13.20;;;6.70;;
76136;SDS011;68622;53.128;17.966;2023-04-24T08:34:55;9.50;;;5.50;;
76136;SDS011;68622;53.128;17.966;2023-04-24T08:37:23;12.20;;;6.40;;
76136;SDS011;68622;53.128;17.966;2023-04-24T08:39:49;11.80;;;6.50;;
76136;SDS011;68622;53.128;17.966;2023-04-24T08:42:16;11.90;;;6.60;;
76136;SDS011;68622;53.128;17.966;2023-04-24T08:44:44;13.80;;;6.60;;
76136;SDS011;68622;53.128;17.966;2023-04-24T08:47:10;13.50;;;6.10;;
76136;SDS011;68622;53.128;17.966;2023-04-24T08:49:37;10.50;;;6.00;;
76136;SDS011;68622;53.128;17.966;2023-04-24T08:52:05;10.20;;;6.00;;
76136;SDS011;68622;53.128;17.966;2023-04-24T08:54:32;12.10;;;6.20;;
76136;SDS011;68622;53.128;17.966;2023-04-24T08:57:00;13.00;;;6.50;;
76136;SDS011;68622;53.128;17.966;2023-04-24T08:59:29;13.90;;;6.20;;
76136;SDS011;68622;53.128;17.966;2023-04-24T09:01:57;11.30;;;6.30;;
76136;SDS011;68622;53.128;17.966;2023-04-24T09:04:23;10.60;;;6.10;;
76136;SDS011;68622;53.128;17.966;2023-04-24T09:06:55;10.40;;;6.10;;
76136;SDS011;68622;53.128;17.966;2023-04-24T09:09:22;10.40;;;5.70;;
76136;SDS011;68622;53.128;17.966;2023-04-24T09:11:49;12.10;;;6.50;;
76136;SDS011;68622;53.128;17.966;2023-04-24T09:14:16;11.10;;;6.30;;
76136;SDS011;68622;53.128;17.966;2023-04-24T09:16:43;14.50;;;6.50;;
76136;SDS011;68622;53.128;17.966;2023-04-24T09:19:09;15.50;;;6.40;;
76136;SDS011;68622;53.128;17.966;2023-04-24T09:21:35;10.10;;;6.30;;
76136;SDS011;68622;53.128;17.966;2023-04-24T09:24:06;10.30;;;5.90;;
76136;SDS011;68622;53.128;17.966;2023-04-24T09:26:34;12.50;;;6.30;;
76136;SDS011;68622;53.128;17.966;2023-04-24T09:29:02;13.10;;;6.20;;
76136;SDS011;68622;53.128;17.966;2023-04-24T09:31:29;11.40;;;6.70;;
76136;SDS011;68622;53.128;17.966;2023-04-24T09:33:56;10.00;;;6.20;;
76136;SDS011;68622;53.128;17.966;2023-04-24T09:36:29;10.50;;;5.80;;
76136;SDS011;68622;53.128;17.966;2023-04-24T09:39:03;10.40;;;6.10;;
76136;SDS011;68622;53.128;17.966;2023-04-24T09:41:31;10.80;;;6.10;;
76136;SDS011;68622;53.128;17.966;2023-04-24T09:44:10;10.50;;;6.30;;
76136;SDS011;68622;53.128;17.966;2023-04-24T09:46:38;9.60;;;5.60;;
76136;SDS011;68622;53.128;17.966;2023-04-24T09:49:07;11.50;;;5.90;;
76136;SDS011;68622;53.128;17.966;2023-04-24T09:51:36;14.20;;;7.00;;
76136;SDS011;68622;53.128;17.966;2023-04-24T09:54:03;11.70;;;6.70;;
76136;SDS011;68622;53.128;17.966;2023-04-24T09:56:33;9.40;;;5.90;;
76136;SDS011;68622;53.128;17.966;2023-04-24T09:59:06;10.10;;;6.00;;
76136;SDS011;68622;53.128;17.966;2023-04-24T10:01:32;11.40;;;6.50;;
76136;SDS011;68622;53.128;17.966;2023-04-24T10:04:00;12.10;;;6.30;;
76136;SDS011;68622;53.128;17.966;2023-04-24T10:06:31;12.60;;;6.00;;
76136;SDS011;68622;53.128;17.966;2023-04-24T10:09:00;9.50;;;6.00;;
76136;SDS011;68622;53.128;17.966;2023-04-24T10:11:26;12.40;;;7.90;;
76136;SDS011;68622;53.128;17.966;2023-04-24T10:13:52;10.00;;;6.60;;
76136;SDS011;68622;53.128;17.966;2023-04-24T10:16:19;10.70;;;6.40;;
76136;SDS011;68622;53.128;17.966;2023-04-24T10:18:48;10.60;;;6.30;;
76136;SDS011;68622;53.128;17.966;2023-04-24T10:21:14;13.10;;;7.30;;
76136;SDS011;68622;53.128;17.966;2023-04-24T10:23:42;10.80;;;7.00;;
76136;SDS011;68622;53.128;17.966;2023-04-24T10:26:09;11.50;;;7.90;;
76136;SDS011;68622;53.128;17.966;2023-04-24T10:28:38;9.70;;;6.10;;
76136;SDS011;68622;53.128;17.966;2023-04-24T10:31:05;10.70;;;6.60;;
76136;SDS011;68622;53.128;17.966;2023-04-24T10:33:31;11.10;;;6.20;;
76136;SDS011;68622;53.128;17.966;2023-04-24T10:35:57;10.80;;;7.30;;
76136;SDS011;68622;53.128;17.966;2023-04-24T10:38:24;11.30;;;7.10;;
76136;SDS011;68622;53.128;17.966;2023-04-24T10:41:09;11.20;;;6.50;;
76136;SDS011;68622;53.128;17.966;2023-04-24T10:43:39;10.50;;;7.40;;
76136;SDS011;68622;53.128;17.966;2023-04-24T10:46:06;11.30;;;7.90;;
76136;SDS011;68622;53.128;17.966;2023-04-24T10:48:33;9.90;;;6.60;;
76136;SDS011;68622;53.128;17.966;2023-04-24T10:50:59;13.40;;;7.20;;
76136;SDS011;68622;53.128;17.966;2023-04-24T10:53:29;11.40;;;7.00;;
76136;SDS011;68622;53.128;17.966;2023-04-24T10:59:02;12.50;;;6.70;;
76136;SDS011;68622;53.128;17.966;2023-04-24T11:01:25;10.00;;;5.80;;
76136;SDS011;68622;53.128;17.966;2023-04-24T11:04:03;11.50;;;6.40;;
76136;SDS011;68622;53.128;17.966;2023-04-24T11:06:30;10.50;;;6.20;;
76136;SDS011;68622;53.128;17.966;2023-04-24T11:09:02;9.10;;;6.00;;
76136;SDS011;68622;53.128;17.966;2023-04-24T11:11:29;11.70;;;6.40;;
76136;SDS011;68622;53.128;17.966;2023-04-24T11:19:05;11.60;;;6.50;;
76136;SDS011;68622;53.128;17.966;2023-04-24T11:21:40;11.90;;;7.30;;
76136;SDS011;68622;53.128;17.966;2023-04-24T11:29:51;13.60;;;9.20;;
76136;SDS011;68622;53.128;17.966;2023-04-24T11:32:39;12.70;;;9.10;;
76136;SDS011;68622;53.128;17.966;2023-04-24T11:35:22;12.60;;;8.40;;
76136;SDS011;68622;53.128;17.966;2023-04-24T11:37:52;10.90;;;6.10;;
76136;SDS011;68622;53.128;17.966;2023-04-24T11:40:19;11.20;;;6.20;;
76136;SDS011;68622;53.128;17.966;2023-04-24T11:42:49;12.10;;;5.80;;
76136;SDS011;68622;53.128;17.966;2023-04-24T11:45:17;10.60;;;5.70;;
76136;SDS011;68622;53.128;17.966;2023-04-24T11:47:51;9.30;;;5.70;;
76136;SDS011;68622;53.128;17.966;2023-04-24T11:50:18;10.40;;;6.90;;
76136;SDS011;68622;53.128;17.966;2023-04-24T11:52:46;9.60;;;6.70;;
76136;SDS011;68622;53.128;17.966;2023-04-24T11:57:39;11.40;;;6.40;;
76136;SDS011;68622;53.128;17.966;2023-04-24T12:00:15;12.10;;;6.90;;
76136;SDS011;68622;53.128;17.966;2023-04-24T12:02:42;12.00;;;6.80;;
76136;SDS011;68622;53.128;17.966;2023-04-24T12:05:09;9.60;;;6.00;;
76136;SDS011;68622;53.128;17.966;2023-04-24T12:07:45;9.90;;;6.10;;
76136;SDS011;68622;53.128;17.966;2023-04-24T12:10:11;9.70;;;6.10;;
76136;SDS011;68622;53.128;17.966;2023-04-24T12:12:36;12.70;;;6.20;;
76136;SDS011;68622;53.128;17.966;2023-04-24T12:15:06;8.70;;;5.90;;
76136;SDS011;68622;53.128;17.966;2023-04-24T12:17:34;12.70;;;5.80;;
76136;SDS011;68622;53.128;17.966;2023-04-24T12:20:03;10.80;;;6.00;;
76136;SDS011;68622;53.128;17.966;2023-04-24T12:22:50;12.00;;;5.90;;
76136;SDS011;68622;53.128;17.966;2023-04-24T12:25:22;12.70;;;6.10;;
76136;SDS011;68622;53.128;17.966;2023-04-24T12:27:53;11.10;;;6.70;;
76136;SDS011;68622;53.128;17.966;2023-04-24T12:30:21;9.70;;;6.40;;
76136;SDS011;68622;53.128;17.966;2023-04-24T12:32:52;12.90;;;6.10;;
76136;SDS011;68622;53.128;17.966;2023-04-24T12:35:21;10.50;;;6.30;;
76136;SDS011;68622;53.128;17.966;2023-04-24T12:37:48;14.10;;;7.80;;
76136;SDS011;68622;53.128;17.966;2023-04-24T12:40:16;10.40;;;7.00;;
76136;SDS011;68622;53.128;17.966;2023-04-24T12:42:45;12.50;;;7.60;;
76136;SDS011;68622;53.128;17.966;2023-04-24T12:45:12;11.70;;;7.60;;
76136;SDS011;68622;53.128;17.966;2023-04-24T12:47:40;13.60;;;8.30;;
76136;SDS011;68622;53.128;17.966;2023-04-24T12:50:08;12.80;;;8.50;;
76136;SDS011;68622;53.128;17.966;2023-04-24T12:52:35;14.30;;;9.70;;
76136;SDS011;68622;53.128;17.966;2023-04-24T12:55:01;16.10;;;8.60;;
76136;SDS011;68622;53.128;17.966;2023-04-24T12:57:29;12.70;;;8.30;;
76136;SDS011;68622;53.128;17.966;2023-04-24T12:59:56;13.20;;;8.90;;
76136;SDS011;68622;53.128;17.966;2023-04-24T13:02:24;13.10;;;8.50;;
76136;SDS011;68622;53.128;17.966;2023-04-24T13:04:52;11.50;;;8.10;;
76136;SDS011;68622;53.128;17.966;2023-04-24T13:07:19;9.60;;;5.80;;
76136;SDS011;68622;53.128;17.966;2023-04-24T13:09:48;10.70;;;7.30;;
76136;SDS011;68622;53.128;17.966;2023-04-24T13:12:14;11.80;;;7.30;;
76136;SDS011;68622;53.128;17.966;2023-04-24T13:14:41;13.70;;;7.50;;
76136;SDS011;68622;53.128;17.966;2023-04-24T13:17:07;11.10;;;7.10;;
76136;SDS011;68622;53.128;17.966;2023-04-24T13:19:36;10.70;;;7.00;;
76136;SDS011;68622;53.128;17.966;2023-04-24T13:22:03;10.20;;;6.60;;
76136;SDS011;68622;53.128;17.966;2023-04-24T13:24:30;11.30;;;6.50;;
76136;SDS011;68622;53.128;17.966;2023-04-24T13:26:57;9.50;;;5.90;;
76136;SDS011;68622;53.128;17.966;2023-04-24T13:29:23;12.70;;;6.70;;
76136;SDS011;68622;53.128;17.966;2023-04-24T13:31:52;9.10;;;6.00;;
76136;SDS011;68622;53.128;17.966;2023-04-24T13:34:25;8.80;;;5.70;;
76136;SDS011;68622;53.128;17.966;2023-04-24T13:36:52;10.70;;;6.20;;
76136;SDS011;68622;53.128;17.966;2023-04-24T13:39:19;10.80;;;6.30;;
76136;SDS011;68622;53.128;17.966;2023-04-24T13:41:46;9.90;;;6.10;;
76136;SDS011;68622;53.128;17.966;2023-04-24T13:44:15;10.70;;;6.30;;
76136;SDS011;68622;53.128;17.966;2023-04-24T13:46:43;10.90;;;5.80;;
76136;SDS011;68622;53.128;17.966;2023-04-24T13:49:11;8.00;;;4.50;;
76136;SDS011;68622;53.128;17.966;2023-04-24T13:51:41;8.40;;;4.90;;
76136;SDS011;68622;53.128;17.966;2023-04-24T13:54:08;8.20;;;4.60;;
76136;SDS011;68622;53.128;17.966;2023-04-24T13:56:34;10.70;;;5.60;;
76136;SDS011;68622;53.128;17.966;2023-04-24T13:59:00;10.70;;;6.40;;
76136;SDS011;68622;53.128;17.966;2023-04-24T14:01:26;8.70;;;6.40;;
76136;SDS011;68622;53.128;17.966;2023-04-24T14:03:52;11.00;;;7.00;;
76136;SDS011;68622;53.128;17.966;2023-04-24T14:06:19;10.10;;;6.50;;
76136;SDS011;68622;53.128;17.966;2023-04-24T14:08:46;10.00;;;6.80;;
76136;SDS011;68622;53.128;17.966;2023-04-24T14:11:13;12.40;;;7.40;;
76136;SDS011;68622;53.128;17.966;2023-04-24T14:13:41;9.70;;;6.70;;
76136;SDS011;68622;53.128;17.966;2023-04-24T14:16:08;10.60;;;6.40;;
76136;SDS011;68622;53.128;17.966;2023-04-24T14:18:34;9.40;;;5.80;;
76136;SDS011;68622;53.128;17.966;2023-04-24T14:21:04;8.70;;;6.00;;
76136;SDS011;68622;53.128;17.966;2023-04-24T14:23:31;8.50;;;5.50;;
76136;SDS011;68622;53.128;17.966;2023-04-24T14:25:57;10.50;;;6.20;;
76136;SDS011;68622;53.128;17.966;2023-04-24T14:28:24;9.90;;;6.20;;
76136;SDS011;68622;53.128;17.966;2023-04-24T14:30:52;9.10;;;6.40;;
76136;SDS011;68622;53.128;17.966;2023-04-24T14:33:18;8.40;;;6.00;;
76136;SDS011;68622;53.128;17.966;2023-04-24T14:35:44;7.70;;;4.30;;